Time;durP1;ratioP1;P1;durP2;ratioP2;P2;SDS_P1;SDS_P2;PMS_P1;PMS_P2;Temp;Humidity;BMP_temperature;BMP_pressure;BME280_temperature;BME280_humidity;BME280_pressure;Samples;Min_cycle;Max_cycle;Signal;HPM_P1;HPM_P2
2021/08/18 00:00:41;;;;;;;4.80;3.60;;;;;;;15.79;87.49;100707.28;5094589;28;20452;-77
2021/08/18 00:03:08;;;;;;;5.37;3.00;;;;;;;15.84;87.64;100707.09;5093776;28;20433;-76
2021/08/18 00:05:35;;;;;;;7.23;3.27;;;;;;;15.81;87.31;100720.63;5093784;28;21035;-76
2021/08/18 00:08:02;;;;;;;5.53;2.97;;;;;;;15.85;87.52;100716.91;5093688;28;20438;-76
2021/08/18 00:10:30;;;;;;;8.83;3.73;;;;;;;15.84;87.27;100714.50;5093681;28;20527;-76
2021/08/18 00:12:57;;;;;;;6.87;3.73;;;;;;;15.86;87.24;100723.97;5093237;28;20470;-77
2021/08/18 00:15:24;;;;;;;3.60;2.60;;;;;;;15.80;87.76;100717.09;5093273;28;20468;-76
2021/08/18 00:17:54;;;;;;;5.57;3.43;;;;;;;15.81;86.87;100715.97;5093594;28;20499;-76
2021/08/18 00:20:21;;;;;;;10.00;4.53;;;;;;;15.82;86.66;100717.56;5093443;28;20963;-76
2021/08/18 00:22:48;;;;;;;5.00;3.00;;;;;;;15.85;87.55;100724.31;5093449;28;20444;-76
2021/08/18 00:25:14;;;;;;;10.10;3.97;;;;;;;15.83;86.81;100721.88;5092971;28;20839;-76
2021/08/18 00:27:41;;;;;;;5.43;3.33;;;;;;;15.89;87.54;100728.78;5093404;28;20445;-76
2021/08/18 00:30:09;;;;;;;6.17;3.43;;;;;;;15.89;87.43;100730.69;5093032;28;20440;-76
2021/08/18 00:32:35;;;;;;;7.60;3.80;;;;;;;15.88;86.97;100724.41;5093459;28;20501;-75
2021/08/18 00:35:04;;;;;;;8.50;4.17;;;;;;;15.85;87.05;100727.84;5092927;28;20456;-75
2021/08/18 00:37:31;;;;;;;5.57;3.80;;;;;;;15.76;87.23;100732.56;5092920;28;20471;-75
2021/08/18 00:39:57;;;;;;;5.00;3.40;;;;;;;15.81;87.15;100724.16;5093279;28;20441;-75
2021/08/18 00:42:24;;;;;;;10.50;5.10;;;;;;;15.79;87.40;100729.16;5093166;28;20502;-75
2021/08/18 00:44:51;;;;;;;5.47;4.50;;;;;;;15.79;87.29;100728.34;5093050;28;20484;-75
2021/08/18 00:47:18;;;;;;;5.83;3.67;;;;;;;15.77;86.86;100727.91;5093161;28;20437;-75
2021/08/18 00:49:44;;;;;;;5.70;3.43;;;;;;;15.70;87.77;100722.94;5093264;28;20440;-75
2021/08/18 00:52:13;;;;;;;11.03;4.43;;;;;;;15.68;87.24;100725.22;5092867;28;20502;-75
2021/08/18 00:54:39;;;;;;;5.03;3.90;;;;;;;15.69;88.09;100724.09;5092762;28;20520;-75
2021/08/18 00:57:07;;;;;;;7.37;3.90;;;;;;;15.63;87.65;100717.22;5093072;28;20494;-76
2021/08/18 00:59:34;;;;;;;5.70;3.20;;;;;;;15.61;88.62;100724.91;5092802;28;20489;-75
2021/08/18 01:02:04;;;;;;;8.60;4.23;;;;;;;15.61;88.22;100730.38;5093048;28;20445;-74
2021/08/18 01:04:31;;;;;;;15.00;4.50;;;;;;;15.61;88.40;100727.66;5092898;28;20484;-75
2021/08/18 01:06:58;;;;;;;7.83;3.80;;;;;;;15.64;88.13;100730.53;5093050;28;20437;-75
2021/08/18 01:09:26;;;;;;;6.20;3.90;;;;;;;15.66;87.74;100722.00;5093602;28;20440;-75
2021/08/18 01:11:53;;;;;;;7.00;4.20;;;;;;;15.67;88.18;100726.38;5096607;28;20440;-75
2021/08/18 01:14:20;;;;;;;8.23;3.30;;;;;;;15.73;88.11;100721.50;5096408;28;20493;-75
2021/08/18 01:16:49;;;;;;;14.77;4.40;;;;;;;15.72;88.12;100723.44;5096514;28;20937;-76
2021/08/18 01:19:17;;;;;;;7.30;3.97;;;;;;;15.72;87.43;100726.16;5096777;28;20479;-75
2021/08/18 01:21:46;;;;;;;9.03;3.90;;;;;;;15.71;88.00;100713.63;5096685;28;20440;-75
2021/08/18 01:24:14;;;;;;;8.13;4.70;;;;;;;15.73;87.17;100726.97;5096525;28;20537;-75
2021/08/18 01:26:42;;;;;;;5.20;3.20;;;;;;;15.72;88.35;100725.38;5096312;28;20440;-75
2021/08/18 01:29:11;;;;;;;11.37;4.47;;;;;;;15.68;87.79;100713.50;5096548;28;20440;-75
2021/08/18 01:31:38;;;;;;;8.70;4.80;;;;;;;15.71;87.92;100718.28;5096488;28;20482;-75
2021/08/18 01:34:06;;;;;;;8.67;4.50;;;;;;;15.71;88.20;100718.28;5096459;28;20529;-75
2021/08/18 01:36:34;;;;;;;6.70;3.53;;;;;;;15.72;87.67;100728.09;5096409;28;20444;-75
2021/08/18 01:39:02;;;;;;;5.43;3.03;;;;;;;15.69;87.20;100723.28;5096432;28;20440;-75
2021/08/18 01:41:29;;;;;;;7.30;4.40;;;;;;;15.67;87.62;100720.91;5096327;28;20466;-75
2021/08/18 01:43:55;;;;;;;5.23;3.27;;;;;;;15.66;86.96;100722.00;5095905;28;20485;-75
2021/08/18 01:46:24;;;;;;;9.43;4.57;;;;;;;15.64;87.63;100718.81;5095885;28;20444;-75
2021/08/18 01:48:51;;;;;;;8.33;4.00;;;;;;;15.67;87.95;100718.19;5096161;28;20497;-75
2021/08/18 01:51:17;;;;;;;5.27;3.50;;;;;;;15.56;87.84;100716.91;5095858;28;20444;-75
2021/08/18 01:53:45;;;;;;;7.23;3.70;;;;;;;15.58;87.83;100711.91;5095725;28;20462;-75
2021/08/18 01:56:13;;;;;;;5.57;3.10;;;;;;;15.62;88.70;100701.94;5096048;28;20859;-75
2021/08/18 01:58:41;;;;;;;7.37;3.53;;;;;;;15.61;88.46;100708.53;5096027;28;20437;-75
2021/08/18 02:01:09;;;;;;;7.70;4.10;;;;;;;15.60;88.92;100702.28;5095907;28;20585;-75
2021/08/18 02:03:38;;;;;;;10.27;4.00;;;;;;;15.66;88.54;100704.84;5095932;28;20528;-75
2021/08/18 02:06:05;;;;;;;5.80;3.07;;;;;;;15.69;87.77;100704.19;5095803;28;20492;-75
2021/08/18 02:08:32;;;;;;;4.90;3.30;;;;;;;15.70;88.42;100700.31;5095845;28;20501;-75
2021/08/18 02:10:59;;;;;;;8.40;4.33;;;;;;;15.63;88.74;100700.81;5095781;28;20436;-75
2021/08/18 02:13:25;;;;;;;4.80;3.73;;;;;;;15.67;88.39;100698.22;5095388;28;20432;-75
2021/08/18 02:15:52;;;;;;;5.13;3.40;;;;;;;15.71;88.87;100696.44;5095291;28;20529;-74
2021/08/18 02:18:19;;;;;;;6.50;4.17;;;;;;;15.67;88.20;100701.78;5095649;28;20514;-74
2021/08/18 02:20:48;;;;;;;7.90;4.10;;;;;;;15.64;88.35;100705.19;5095371;28;20521;-74
2021/08/18 02:23:15;;;;;;;7.73;4.13;;;;;;;15.67;88.80;100696.31;5095515;28;20441;-74
2021/08/18 02:25:43;;;;;;;5.20;3.50;;;;;;;15.66;88.40;100699.38;5095016;28;20484;-74
2021/08/18 02:28:10;;;;;;;7.57;5.10;;;;;;;15.62;88.24;100702.72;5095408;28;20505;-74
2021/08/18 02:30:37;;;;;;;6.50;3.53;;;;;;;15.65;88.31;100704.03;5095381;28;20449;-74
2021/08/18 02:33:04;;;;;;;7.50;4.37;;;;;;;15.57;88.22;100691.22;5095059;28;20449;-74
2021/08/18 02:35:31;;;;;;;10.13;4.47;;;;;;;15.56;88.53;100700.53;5095201;28;20464;-73
2021/08/18 02:38:00;;;;;;;7.40;3.93;;;;;;;15.62;88.26;100688.28;5094914;28;20994;-73
2021/08/18 02:40:47;;;;;;;7.90;3.93;;;;;;;15.60;88.34;100699.53;5095157;28;20445;-73
2021/08/18 02:43:14;;;;;;;5.47;3.43;;;;;;;15.57;87.93;100702.94;5094893;28;20962;-73
2021/08/18 02:45:41;;;;;;;5.60;3.63;;;;;;;15.61;88.16;100690.22;5094955;28;20484;-73
2021/08/18 02:48:08;;;;;;;9.63;4.10;;;;;;;15.60;88.05;100694.09;5094872;28;20448;-73
2021/08/18 02:50:35;;;;;;;6.73;4.17;;;;;;;15.58;89.11;100687.34;5094984;28;20493;-73
2021/08/18 02:53:03;;;;;;;5.10;2.87;;;;;;;15.62;88.88;100691.00;5094976;28;20444;-73
2021/08/18 02:55:30;;;;;;;6.27;4.50;;;;;;;15.63;89.27;100689.91;5094810;28;20468;-73
2021/08/18 02:57:57;;;;;;;5.47;3.53;;;;;;;15.59;89.30;100686.22;5094856;28;20448;-73
2021/08/18 03:00:24;;;;;;;5.77;3.40;;;;;;;15.59;89.10;100687.03;5094791;28;20497;-73
2021/08/18 03:02:51;;;;;;;6.20;3.67;;;;;;;15.57;88.81;100692.00;5094450;28;20498;-74
2021/08/18 03:05:19;;;;;;;7.20;4.30;;;;;;;15.62;89.19;100689.06;5094824;28;20575;-76
2021/08/18 03:07:46;;;;;;;6.97;3.90;;;;;;;15.59;89.16;100684.28;5094912;28;20498;-75
2021/08/18 03:10:14;;;;;;;12.27;3.30;;;;;;;15.56;89.27;100684.16;5094608;28;20502;-75
2021/08/18 03:12:41;;;;;;;8.10;3.70;;;;;;;15.56;89.34;100682.22;5095517;28;20498;-78
2021/08/18 03:15:09;;;;;;;5.70;3.10;;;;;;;15.56;90.31;100689.63;5094519;28;21066;-78
2021/08/18 03:17:35;;;;;;;6.33;4.20;;;;;;;15.53;89.91;100682.06;5095704;28;20445;-77
2021/08/18 03:20:03;;;;;;;4.50;2.93;;;;;;;15.52;90.20;100694.94;5095572;28;20462;-77
2021/08/18 03:22:30;;;;;;;6.37;3.53;;;;;;;15.56;89.63;100697.81;5095445;28;20494;-77
2021/08/18 03:24:57;;;;;;;6.63;3.27;;;;;;;15.57;89.19;100696.66;5096389;28;20628;-78
2021/08/18 03:27:25;;;;;;;6.10;3.60;;;;;;;15.56;89.01;100695.88;5096515;28;20945;-78
2021/08/18 03:29:52;;;;;;;6.00;3.77;;;;;;;15.46;89.41;100693.53;5094545;28;20448;-76
2021/08/18 03:32:19;;;;;;;7.67;3.60;;;;;;;15.44;89.77;100695.78;5093284;28;20452;-76
2021/08/18 03:34:45;;;;;;;4.37;3.60;;;;;;;15.43;90.77;100696.13;5093875;28;20464;-76
2021/08/18 03:37:12;;;;;;;10.10;4.50;;;;;;;15.44;90.69;100692.25;5093726;28;20441;-76
2021/08/18 03:39:39;;;;;;;5.20;2.97;;;;;;;15.47;91.03;100691.59;5093768;28;20946;-75
2021/08/18 03:42:06;;;;;;;4.40;2.83;;;;;;;15.49;90.56;100694.78;5093993;28;20456;-76
2021/08/18 03:44:34;;;;;;;6.60;4.37;;;;;;;15.54;90.08;100692.69;5093857;28;20476;-76
2021/08/18 03:47:01;;;;;;;7.70;3.40;;;;;;;15.50;90.12;100697.22;5093953;28;20436;-75
2021/08/18 03:49:28;;;;;;;5.27;3.07;;;;;;;15.48;89.89;100695.94;5093581;28;20452;-76
2021/08/18 03:51:54;;;;;;;7.43;3.70;;;;;;;15.38;90.56;100695.19;5093563;28;20448;-76
2021/08/18 03:54:21;;;;;;;7.70;3.07;;;;;;;15.37;90.06;100692.78;5093766;28;20464;-75
2021/08/18 03:56:48;;;;;;;7.97;3.00;;;;;;;15.37;90.08;100692.78;5093774;28;20490;-76
2021/08/18 03:59:15;;;;;;;5.77;3.20;;;;;;;15.32;90.68;100696.50;5093352;28;20494;-75
2021/08/18 04:01:43;;;;;;;5.50;3.23;;;;;;;15.36;90.78;100692.00;5093715;28;20444;-75
2021/08/18 04:04:10;;;;;;;8.23;3.60;;;;;;;15.35;91.19;100701.28;5093599;28;20464;-75
2021/08/18 04:06:36;;;;;;;5.90;3.57;;;;;;;15.37;91.25;100693.59;5093236;28;21066;-75
2021/08/18 04:09:03;;;;;;;5.63;3.20;;;;;;;15.32;91.30;100688.31;5093675;28;20438;-76
2021/08/18 04:11:30;;;;;;;6.47;3.30;;;;;;;15.32;91.10;100693.78;5093531;28;20451;-75
2021/08/18 04:13:57;;;;;;;6.33;3.73;;;;;;;15.37;90.97;100700.97;5093134;28;20476;-75
2021/08/18 04:16:24;;;;;;;7.67;3.77;;;;;;;15.25;91.98;100700.88;5093496;28;20432;-75
2021/08/18 04:18:52;;;;;;;5.37;3.30;;;;;;;15.25;91.78;100693.50;5093432;28;20448;-75
2021/08/18 04:21:19;;;;;;;6.13;3.17;;;;;;;15.31;91.99;100689.44;5093447;28;20448;-75
2021/08/18 04:23:46;;;;;;;6.00;3.60;;;;;;;15.31;92.12;100694.91;5093387;28;20494;-75
2021/08/18 04:26:13;;;;;;;6.90;3.63;;;;;;;15.33;91.66;100700.03;5092968;28;20484;-75
2021/08/18 04:28:40;;;;;;;8.40;3.37;;;;;;;15.25;91.15;100693.50;5093020;28;20551;-76
2021/08/18 04:31:07;;;;;;;4.93;2.60;;;;;;;15.21;90.85;100703.47;5093083;28;20451;-76
2021/08/18 04:33:34;;;;;;;7.77;4.30;;;;;;;15.17;91.99;100705.25;5093030;28;20436;-75
2021/08/18 04:36:02;;;;;;;3.97;2.60;;;;;;;15.13;92.30;100704.31;5093284;28;20460;-76
2021/08/18 04:38:28;;;;;;;6.27;4.90;;;;;;;15.11;92.34;100703.84;5092982;28;20953;-76
2021/08/18 04:40:55;;;;;;;4.50;3.07;;;;;;;15.10;92.56;100702.25;5094355;28;20440;-76
2021/08/18 04:43:22;;;;;;;4.87;3.07;;;;;;;15.11;92.54;100706.56;5093195;28;20440;-76
2021/08/18 04:45:49;;;;;;;6.80;3.37;;;;;;;15.05;92.96;100705.16;5096558;28;20483;-77
2021/08/18 04:48:15;;;;;;;7.60;3.50;;;;;;;15.04;92.43;100701.63;5097363;28;20447;-76
2021/08/18 04:50:42;;;;;;;5.13;2.83;;;;;;;15.08;93.25;100707.22;5097288;28;20501;-76
2021/08/18 04:53:11;;;;;;;5.57;3.07;;;;;;;15.07;93.71;100705.63;5097429;28;20459;-76
2021/08/18 04:55:37;;;;;;;6.87;3.13;;;;;;;15.07;93.72;100711.09;5096845;28;21004;-76
2021/08/18 04:58:04;;;;;;;5.67;2.90;;;;;;;15.06;93.24;100710.28;5096868;28;20854;-76
2021/08/18 05:00:31;;;;;;;5.30;2.90;;;;;;;15.06;93.47;100709.50;5097151;28;20448;-76
2021/08/18 05:02:57;;;;;;;6.03;3.30;;;;;;;15.07;93.60;100711.09;5097130;28;20436;-76
2021/08/18 05:05:24;;;;;;;5.37;3.03;;;;;;;15.09;92.95;100719.72;5096940;28;20519;-76
2021/08/18 05:07:51;;;;;;;5.63;3.80;;;;;;;15.08;93.11;100721.66;5097029;28;20444;-76
2021/08/18 05:10:20;;;;;;;6.80;2.87;;;;;;;15.10;92.24;100721.34;5096934;28;20444;-76
2021/08/18 05:12:46;;;;;;;4.60;3.00;;;;;;;15.11;93.58;100728.41;5096942;28;20448;-76
2021/08/18 05:15:13;;;;;;;4.80;2.70;;;;;;;15.14;92.86;100731.28;5096491;28;20464;-76
2021/08/18 05:17:39;;;;;;;3.60;2.70;;;;;;;15.13;92.51;100732.38;5096485;28;20452;-76
2021/08/18 05:20:07;;;;;;;6.70;3.70;;;;;;;15.10;92.30;100730.34;5096766;28;20448;-75
2021/08/18 05:22:33;;;;;;;5.10;2.80;;;;;;;15.06;91.53;100734.06;5096700;28;20447;-75
2021/08/18 05:25:00;;;;;;;6.20;3.13;;;;;;;15.13;92.39;100737.06;5096238;28;20984;-75
2021/08/18 05:27:27;;;;;;;5.63;3.20;;;;;;;15.09;91.97;100736.09;5096604;28;20447;-76
2021/08/18 05:29:54;;;;;;;6.30;3.10;;;;;;;15.14;91.74;100749.59;5096606;28;20440;-75
2021/08/18 05:32:20;;;;;;;6.07;2.47;;;;;;;15.15;91.47;100740.25;5096493;28;20444;-75
2021/08/18 05:34:47;;;;;;;7.40;2.50;;;;;;;15.12;91.57;100747.16;5096451;28;20484;-75
2021/08/18 05:37:13;;;;;;;6.50;2.90;;;;;;;15.14;92.18;100738.69;5096472;28;20447;-76
2021/08/18 05:39:39;;;;;;;7.63;3.00;;;;;;;15.09;92.35;100736.91;5096399;28;20448;-76
2021/08/18 05:42:06;;;;;;;3.43;2.50;;;;;;;15.08;92.49;100740.75;5096390;28;20463;-75
2021/08/18 05:44:34;;;;;;;5.23;3.93;;;;;;;15.08;92.63;100735.31;5096310;28;20467;-76
2021/08/18 05:47:00;;;;;;;5.63;3.03;;;;;;;15.11;92.97;100736.59;5096283;28;20480;-76
2021/08/18 05:49:27;;;;;;;4.80;2.87;;;;;;;15.16;92.81;100743.78;5096384;28;20451;-77
2021/08/18 05:51:53;;;;;;;4.50;2.03;;;;;;;15.21;92.72;100738.94;5096182;28;20441;-76
2021/08/18 05:54:19;;;;;;;8.93;3.30;;;;;;;15.25;91.92;100739.88;5095615;28;20981;-76
2021/08/18 05:56:46;;;;;;;4.53;2.77;;;;;;;15.29;91.66;100751.75;5095433;28;20443;-76
2021/08/18 05:59:13;;;;;;;5.87;2.70;;;;;;;15.33;91.45;100744.50;5095721;28;20963;-76
2021/08/18 06:01:40;;;;;;;4.93;2.43;;;;;;;15.41;91.59;100745.59;5095932;28;20798;-76
2021/08/18 06:04:07;;;;;;;6.17;3.30;;;;;;;15.46;91.49;100750.06;5096122;28;20468;-76
2021/08/18 06:06:33;;;;;;;8.57;2.80;;;;;;;15.54;91.40;100754.69;5095845;28;20484;-76
2021/08/18 06:09:00;;;;;;;4.63;2.53;;;;;;;15.57;91.53;100745.81;5095875;28;20448;-76
2021/08/18 06:11:26;;;;;;;5.57;3.10;;;;;;;15.61;90.27;100749.50;5095846;28;20451;-76
2021/08/18 06:13:53;;;;;;;4.97;2.50;;;;;;;15.63;90.34;100739.06;5095488;28;20513;-76
2021/08/18 06:16:20;;;;;;;5.10;2.97;;;;;;;15.71;90.25;100745.59;5095730;28;20432;-76
2021/08/18 06:18:48;;;;;;;5.90;3.27;;;;;;;15.70;89.57;100747.53;5095649;28;20445;-76
2021/08/18 06:21:15;;;;;;;4.33;2.30;;;;;;;15.78;89.62;100749.41;5095301;28;20950;-76
2021/08/18 06:23:41;;;;;;;4.43;2.33;;;;;;;15.82;89.34;100753.06;5095486;28;20824;-76
2021/08/18 06:26:08;;;;;;;3.37;2.30;;;;;;;15.81;88.27;100746.03;5095329;28;21023;-76
2021/08/18 06:28:34;;;;;;;3.80;2.20;;;;;;;15.93;89.07;100741.75;5095510;28;20448;-76
2021/08/18 06:31:01;;;;;;;3.53;2.60;;;;;;;15.94;89.05;100743.34;5095429;28;20445;-76
2021/08/18 06:33:27;;;;;;;5.70;2.60;;;;;;;15.97;88.89;100748.16;5095424;28;20468;-75
2021/08/18 06:35:55;;;;;;;3.33;2.23;;;;;;;16.00;88.07;100734.63;5095276;28;20475;-76
2021/08/18 06:38:22;;;;;;;3.50;2.37;;;;;;;16.10;87.94;100738.88;5095291;28;20436;-75
2021/08/18 06:40:48;;;;;;;3.33;2.00;;;;;;;16.21;87.03;100731.88;5095242;28;20448;-74
2021/08/18 06:43:14;;;;;;;3.47;2.23;;;;;;;16.27;86.81;100729.72;5094906;28;20451;-75
2021/08/18 06:45:41;;;;;;;3.83;2.70;;;;;;;16.27;85.43;100732.47;5094960;28;20491;-75
2021/08/18 06:48:07;;;;;;;2.27;1.67;;;;;;;16.36;86.19;100733.97;5095064;28;20825;-75
2021/08/18 06:50:34;;;;;;;4.10;2.00;;;;;;;16.37;85.00;100732.03;5095085;28;20441;-75
2021/08/18 06:53:02;;;;;;;3.20;2.37;;;;;;;16.53;85.06;100732.22;5094989;28;20446;-74
2021/08/18 06:55:30;;;;;;;2.97;1.90;;;;;;;16.65;84.28;100729.53;5094524;28;21018;-75
2021/08/18 06:57:56;;;;;;;3.40;2.13;;;;;;;16.65;83.66;100726.78;5095142;28;20459;-76
2021/08/18 07:00:23;;;;;;;2.03;1.70;;;;;;;16.70;82.83;100725.78;5095409;28;20444;-74
2021/08/18 07:02:51;;;;;;;2.63;1.63;;;;;;;16.79;82.64;100738.25;5095421;28;20447;-76
2021/08/18 07:05:19;;;;;;;2.87;1.73;;;;;;;16.91;82.81;100729.25;5095592;28;20460;-73
2021/08/18 07:07:46;;;;;;;3.17;1.80;;;;;;;16.95;83.02;100737.56;5093627;28;20989;-76
2021/08/18 07:10:16;;;;;;;5.20;1.90;;;;;;;17.00;81.95;100735.44;5094995;28;20452;-77
2021/08/18 07:12:43;;;;;;;5.13;2.40;;;;;;;16.97;81.00;100735.31;5095270;28;20436;-76
2021/08/18 07:15:10;;;;;;;2.43;1.80;;;;;;;17.01;82.14;100731.53;5094919;28;20992;-77
2021/08/18 07:17:37;;;;;;;4.43;2.60;;;;;;;17.10;81.50;100734.19;5095854;28;20448;-77
2021/08/18 07:20:04;;;;;;;5.03;1.87;;;;;;;17.34;82.36;100742.38;5095149;28;20456;-77
2021/08/18 07:22:30;;;;;;;2.53;1.30;;;;;;;17.49;80.22;100745.59;5095253;28;20448;-77
2021/08/18 07:24:57;;;;;;;2.40;1.53;;;;;;;17.47;79.98;100743.19;5095147;28;20535;-77
2021/08/18 07:27:24;;;;;;;2.70;1.73;;;;;;;17.44;79.68;100748.53;5094959;28;20491;-77
2021/08/18 07:29:52;;;;;;;3.13;1.77;;;;;;;17.27;79.89;100742.16;5094615;28;20448;-77
2021/08/18 07:32:18;;;;;;;5.73;2.20;;;;;;;17.19;80.54;100747.75;5094455;28;20440;-78
2021/08/18 07:34:44;;;;;;;4.30;2.30;;;;;;;17.19;80.50;100743.06;5094728;28;20476;-77
2021/08/18 07:37:11;;;;;;;3.97;2.23;;;;;;;17.26;80.90;100740.56;5094990;28;20440;-77
2021/08/18 07:39:37;;;;;;;2.50;2.10;;;;;;;17.37;80.45;100736.22;5094858;28;20445;-77
2021/08/18 07:42:05;;;;;;;4.60;1.90;;;;;;;17.42;80.28;100740.69;5094772;28;20790;-77
2021/08/18 07:44:33;;;;;;;3.77;1.90;;;;;;;17.44;79.80;100738.38;5094186;28;20464;-77
2021/08/18 07:46:59;;;;;;;2.87;1.70;;;;;;;17.47;79.76;100737.69;5094114;28;20489;-77
2021/08/18 07:49:26;;;;;;;2.30;1.40;;;;;;;17.38;80.08;100739.75;5094135;28;20448;-77
2021/08/18 07:51:52;;;;;;;3.40;1.40;;;;;;;17.33;79.87;100727.09;5093902;28;20448;-74
2021/08/18 07:54:18;;;;;;;2.10;1.37;;;;;;;17.32;79.37;100738.41;5093802;28;20467;-75
2021/08/18 07:56:45;;;;;;;3.10;2.03;;;;;;;17.40;79.40;100738.28;5093843;28;20493;-76
2021/08/18 07:59:11;;;;;;;2.83;1.57;;;;;;;17.43;80.02;100730.50;5093506;28;20949;-74
2021/08/18 08:01:40;;;;;;;3.03;1.57;;;;;;;17.43;80.29;100736.00;5093418;28;20834;-74
2021/08/18 08:04:07;;;;;;;2.20;1.47;;;;;;;17.47;79.96;100731.44;5093699;28;20460;-74
2021/08/18 08:06:33;;;;;;;3.73;2.23;;;;;;;17.38;80.27;100721.38;5093352;28;20945;-74
2021/08/18 08:09:00;;;;;;;4.67;1.70;;;;;;;17.32;81.52;100725.50;5093336;28;20976;-74
2021/08/18 08:11:26;;;;;;;3.40;1.70;;;;;;;17.38;82.16;100724.13;5093672;28;20444;-74
2021/08/18 08:13:53;;;;;;;3.13;2.23;;;;;;;17.49;81.09;100727.22;5093313;28;20448;-73
2021/08/18 08:16:20;;;;;;;3.27;1.40;;;;;;;17.68;80.61;100721.13;5093666;28;20421;-73
2021/08/18 08:18:48;;;;;;;2.67;1.60;;;;;;;17.91;78.78;100721.44;5092794;28;20486;-75
2021/08/18 08:21:15;;;;;;;2.43;1.50;;;;;;;18.03;77.46;100718.66;5093489;28;20479;-73
2021/08/18 08:23:42;;;;;;;2.37;1.60;;;;;;;18.23;75.97;100713.31;5093017;28;20949;-74
2021/08/18 08:26:08;;;;;;;2.47;1.70;;;;;;;18.46;75.99;100716.28;5093456;28;20443;-74
2021/08/18 08:28:35;;;;;;;3.17;1.50;;;;;;;18.52;74.98;100720.41;5093438;28;20476;-73
2021/08/18 08:31:02;;;;;;;3.17;1.70;;;;;;;18.56;75.83;100722.09;5093331;28;20531;-73
2021/08/18 08:33:28;;;;;;;3.27;1.50;;;;;;;18.56;76.00;100715.81;5093277;28;20539;-74
2021/08/18 08:35:56;;;;;;;6.93;2.33;;;;;;;18.54;75.29;100718.88;5093298;28;20464;-74
2021/08/18 08:38:23;;;;;;;3.77;1.50;;;;;;;18.63;74.61;100726.94;5093322;28;20451;-74
2021/08/18 08:40:50;;;;;;;2.50;1.57;;;;;;;18.58;75.41;100721.72;5092962;28;20502;-73
2021/08/18 08:43:19;;;;;;;3.87;1.90;;;;;;;18.69;74.68;100722.84;5093090;28;20441;-74
2021/08/18 08:45:47;;;;;;;4.73;1.70;;;;;;;18.80;74.30;100725.84;5093201;28;20811;-74
2021/08/18 08:48:15;;;;;;;4.10;1.97;;;;;;;18.81;75.24;100720.00;5092817;28;21063;-73
2021/08/18 08:50:42;;;;;;;4.97;1.77;;;;;;;18.93;74.97;100721.06;5092913;28;20945;-74
2021/08/18 08:53:10;;;;;;;4.23;2.00;;;;;;;18.87;75.55;100718.59;5092991;28;20532;-74
2021/08/18 08:55:36;;;;;;;3.63;1.60;;;;;;;18.91;74.00;100715.94;5093095;28;20551;-72
2021/08/18 08:58:03;;;;;;;3.30;1.73;;;;;;;18.84;73.65;100715.75;5093231;28;20439;-75
2021/08/18 09:00:30;;;;;;;1.83;1.20;;;;;;;18.76;73.60;100713.97;5093354;28;20441;-75
2021/08/18 09:03:12;;;;;;;3.30;1.50;;;;;;;18.58;75.00;100708.00;5093390;28;20448;-77
2021/08/18 09:05:39;;;;;;;4.37;1.67;;;;;;;18.58;76.68;100713.50;5093437;28;20563;-77
2021/08/18 09:08:11;;;;;;;3.50;1.80;;;;;;;18.63;75.70;100710.47;5093952;28;20495;-77
2021/08/18 09:10:38;;;;;;;2.33;1.60;;;;;;;18.83;77.11;100714.97;5093640;28;20432;-76
2021/08/18 09:13:13;;;;;;;2.70;1.50;;;;;;;19.01;75.62;100725.59;5093418;28;20448;-77
2021/08/18 09:15:39;;;;;;;1.80;1.47;;;;;;;19.15;75.71;100721.25;5092879;28;20861;-77
2021/08/18 09:18:06;;;;;;;2.73;1.60;;;;;;;19.31;74.22;100723.97;5093663;28;20439;-77
2021/08/18 09:20:33;;;;;;;2.50;2.10;;;;;;;19.27;72.71;100719.56;5093639;28;20448;-76
2021/08/18 09:23:02;;;;;;;2.10;1.53;;;;;;;19.31;72.27;100713.00;5094352;28;20798;-77
2021/08/18 09:25:32;;;;;;;1.73;1.10;;;;;;;19.34;73.23;100700.47;5093413;28;20461;-78
2021/08/18 09:28:20;;;;;;;4.47;1.43;;;;;;;19.37;72.86;100721.75;5094128;28;20476;-77
2021/08/18 09:30:49;;;;;;;2.13;1.87;;;;;;;19.23;72.14;100707.69;5095288;28;20511;-77
2021/08/18 09:33:17;;;;;;;1.67;1.40;;;;;;;19.04;73.65;100703.72;5097240;28;20452;-75
2021/08/18 09:35:46;;;;;;;2.73;1.70;;;;;;;19.05;73.67;100716.28;5096434;28;20505;-75
2021/08/18 09:38:15;;;;;;;2.70;1.80;;;;;;;19.14;74.24;100708.66;5096473;28;20440;-75
2021/08/18 09:40:47;;;;;;;2.63;1.53;;;;;;;19.28;73.05;100697.22;5095803;28;20447;-75
2021/08/18 09:43:16;;;;;;;1.60;1.50;;;;;;;19.44;72.86;100704.66;5096176;28;20429;-75
2021/08/18 09:45:44;;;;;;;2.00;1.47;;;;;;;19.63;72.08;100697.25;5096284;28;20464;-75
2021/08/18 09:48:12;;;;;;;2.33;1.50;;;;;;;19.65;71.57;100686.69;5096194;28;20476;-75
2021/08/18 09:50:48;;;;;;;2.63;1.53;;;;;;;19.73;71.03;100679.38;5096285;28;20448;-75
2021/08/18 09:53:17;;;;;;;2.27;1.53;;;;;;;19.78;69.32;100690.09;5096215;28;20516;-75
2021/08/18 09:55:53;;;;;;;3.30;1.47;;;;;;;19.87;70.63;100687.94;5096050;28;20467;-75
2021/08/18 09:58:38;;;;;;;5.47;1.67;;;;;;;19.83;70.01;100684.34;5096389;28;20458;-76
2021/08/18 10:01:08;;;;;;;6.43;1.67;;;;;;;19.91;69.55;100685.25;5095820;28;20491;-75
2021/08/18 10:03:35;;;;;;;3.50;1.60;;;;;;;20.17;69.30;100684.59;5096221;28;20476;-75
2021/08/18 10:06:02;;;;;;;2.10;1.70;;;;;;;20.31;67.76;100684.88;5095887;28;20452;-74
2021/08/18 10:08:29;;;;;;;1.63;1.33;;;;;;;20.39;67.32;100675.59;5095886;28;20480;-75
2021/08/18 10:10:57;;;;;;;1.97;1.20;;;;;;;20.26;67.05;100668.66;5095867;28;20454;-74
2021/08/18 10:13:24;;;;;;;1.47;1.10;;;;;;;20.17;68.63;100671.63;5095831;28;20451;-75
2021/08/18 10:15:51;;;;;;;2.73;1.70;;;;;;;20.29;67.94;100669.91;5095259;28;20468;-75
2021/08/18 10:18:29;;;;;;;1.63;1.10;;;;;;;20.42;65.29;100669.34;5095719;28;20444;-75
2021/08/18 10:21:00;;;;;;;2.00;1.33;;;;;;;20.59;65.12;100661.81;5095690;28;20421;-75
2021/08/18 10:23:47;;;;;;;1.63;1.10;;;;;;;20.77;65.24;100673.13;5095746;28;20437;-76
2021/08/18 10:26:49;;;;;;;3.33;1.10;;;;;;;20.84;62.96;100670.47;5095607;28;20421;-75
2021/08/18 10:29:30;;;;;;;1.63;1.20;;;;;;;20.95;63.21;100667.91;5090809;28;20995;-76
2021/08/18 10:31:57;;;;;;;2.20;1.13;;;;;;;20.91;61.91;100668.66;5095356;28;20843;-76
2021/08/18 10:34:41;;;;;;;3.10;1.53;;;;;;;20.77;62.81;100660.16;5095365;28;20542;-76
2021/08/18 10:37:23;;;;;;;5.50;1.37;;;;;;;20.66;62.66;100667.44;5095138;28;20976;-75
2021/08/18 10:39:54;;;;;;;1.83;1.43;;;;;;;20.69;64.40;100660.41;5095306;28;20451;-75
2021/08/18 10:42:40;;;;;;;5.50;1.40;;;;;;;20.84;64.39;100671.28;5096627;28;20433;-75
2021/08/18 10:45:36;;;;;;;3.40;1.30;;;;;;;20.95;62.90;100654.94;5095245;28;20464;-76
2021/08/18 10:48:03;;;;;;;1.83;1.47;;;;;;;20.97;63.21;100668.31;5089536;28;20488;-76
2021/08/18 10:50:42;;;;;;;1.67;1.33;;;;;;;21.02;63.78;100676.28;5095123;28;20452;-75
2021/08/18 10:53:28;;;;;;;1.13;1.00;;;;;;;20.73;64.44;100675.81;5094827;28;20771;-75
2021/08/18 10:55:54;;;;;;;1.37;1.10;;;;;;;20.74;64.96;100668.34;5094896;28;20496;-76
2021/08/18 10:58:30;;;;;;;1.17;1.00;;;;;;;20.63;64.68;100676.44;5095029;28;20441;-77
2021/08/18 11:00:56;;;;;;;1.70;1.27;;;;;;;20.53;64.46;100677.03;5094890;28;20481;-74
2021/08/18 11:03:26;;;;;;;2.87;1.63;;;;;;;20.35;64.72;100677.47;5094856;28;20448;-75
2021/08/18 11:05:54;;;;;;;2.53;1.80;;;;;;;20.33;63.36;100676.25;5094661;28;20472;-75
2021/08/18 11:08:22;;;;;;;1.90;1.13;;;;;;;20.29;63.49;100678.94;5094693;28;20492;-75
2021/08/18 11:11:11;;;;;;;1.73;1.23;;;;;;;20.22;63.40;100687.03;5095020;28;20440;-75
2021/08/18 11:13:41;;;;;;;6.93;1.50;;;;;;;20.22;64.21;100676.03;5094953;28;20455;-77
2021/08/18 11:16:10;;;;;;;2.10;1.30;;;;;;;20.20;64.17;100685.84;5094754;28;20425;-76
2021/08/18 11:18:46;;;;;;;1.77;1.10;;;;;;;20.27;64.25;100681.25;5094959;28;20850;-76
2021/08/18 11:21:16;;;;;;;1.20;1.10;;;;;;;20.41;63.76;100680.75;5094754;28;20467;-77
2021/08/18 11:23:49;;;;;;;2.23;1.10;;;;;;;20.46;63.41;100671.38;5095103;28;20483;-77
2021/08/18 11:26:19;;;;;;;2.13;1.30;;;;;;;20.38;63.59;100668.50;5094759;28;20421;-69
2021/08/18 11:28:54;;;;;;;2.30;1.37;;;;;;;20.28;62.66;100666.34;5094188;28;20499;-71